createdAt,value
2019-05-12T00:00:20.785Z,11.63
2019-05-12T00:02:49.359Z,10.98
2019-05-12T00:05:18.699Z,12.00
2019-05-12T00:07:48.746Z,11.33
2019-05-12T00:10:18.046Z,11.90
2019-05-12T00:12:48.322Z,11.40
2019-05-12T00:15:19.109Z,11.60
2019-05-12T00:17:48.129Z,12.65
2019-05-12T00:20:18.121Z,11.35
2019-05-12T00:22:50.118Z,11.20
2019-05-12T00:25:18.954Z,11.93
2019-05-12T00:27:48.573Z,12.13
2019-05-12T00:30:38.502Z,12.63
2019-05-12T00:33:08.904Z,12.53
2019-05-12T00:35:38.099Z,11.73
2019-05-12T00:38:09.032Z,10.23
2019-05-12T00:40:39.217Z,7.97
2019-05-12T00:43:08.850Z,8.50
2019-05-12T00:45:38.499Z,9.03
2019-05-12T00:48:09.251Z,8.63
2019-05-12T00:50:38.342Z,10.10
2019-05-12T00:53:08.975Z,10.43
2019-05-12T00:55:38.240Z,10.55
2019-05-12T00:58:08.270Z,10.60
2019-05-12T01:00:40.700Z,11.08
2019-05-12T01:03:08.752Z,11.97
2019-05-12T01:05:38.338Z,12.03
2019-05-12T01:08:09.120Z,10.60
2019-05-12T01:10:39.044Z,11.50
2019-05-12T01:13:08.672Z,10.45
2019-05-12T01:15:37.968Z,10.85
2019-05-12T01:18:28.022Z,11.08
2019-05-12T01:21:18.468Z,11.15
2019-05-12T01:24:08.759Z,10.90
2019-05-12T01:26:58.036Z,10.48
2019-05-12T01:29:47.899Z,10.30
2019-05-12T01:32:54.263Z,9.75
2019-05-12T01:35:42.102Z,10.00
2019-05-12T01:38:30.212Z,9.50
2019-05-12T01:41:18.347Z,9.85
2019-05-12T01:44:08.619Z,9.48
2019-05-12T01:46:57.733Z,11.10
2019-05-12T01:49:45.830Z,10.13
2019-05-12T01:52:33.666Z,11.08
2019-05-12T01:55:21.510Z,12.07
2019-05-12T01:58:09.351Z,11.25
2019-05-12T02:00:58.835Z,13.00
2019-05-12T02:03:48.042Z,12.73
2019-05-12T02:12:11.938Z,10.95
2019-05-12T02:14:52.551Z,10.82
2019-05-12T02:17:33.167Z,10.43
2019-05-12T02:20:13.926Z,9.70
2019-05-12T02:22:54.774Z,9.85
2019-05-12T02:25:37.821Z,9.08
2019-05-12T02:28:18.390Z,8.38
2019-05-12T02:30:59.185Z,9.28
2019-05-12T02:33:40.136Z,8.98
2019-05-12T02:36:20.448Z,8.10
2019-05-12T02:39:00.996Z,8.50
2019-05-12T02:41:44.713Z,8.58
2019-05-12T02:44:24.966Z,8.93
2019-05-12T02:47:06.287Z,8.70
2019-05-12T02:49:47.316Z,8.55
2019-05-12T02:52:27.697Z,7.50
2019-05-12T02:55:08.411Z,8.03
2019-05-12T02:57:49.348Z,7.83
2019-05-12T03:00:29.896Z,8.48
2019-05-12T03:03:10.364Z,7.95
2019-05-12T03:05:51.172Z,7.95
2019-05-12T03:08:34.838Z,8.00
2019-05-12T03:11:15.028Z,8.03
2019-05-12T03:13:55.759Z,7.80
2019-05-12T03:16:37.012Z,7.28
2019-05-12T03:22:05.034Z,6.25
2019-05-12T03:25:05.092Z,6.60
2019-05-12T03:27:28.603Z,6.65
2019-05-12T03:30:11.584Z,6.75
2019-05-12T03:35:42.876Z,6.08
2019-05-12T03:41:10.316Z,5.03
2019-05-12T03:49:24.531Z,3.90
2019-05-12T03:52:05.199Z,4.62
2019-05-12T04:31:15.638Z,3.90
2019-05-12T04:33:56.927Z,4.10
2019-05-12T04:36:37.595Z,4.65
2019-05-12T04:39:18.018Z,3.90
2019-05-12T04:41:58.680Z,4.10
2019-05-12T04:44:39.568Z,4.40
2019-05-12T04:47:20.548Z,4.08
2019-05-12T04:50:01.157Z,3.83
2019-05-12T04:52:44.612Z,4.75
2019-05-12T04:55:25.562Z,3.72
2019-05-12T04:58:06.912Z,4.25
2019-05-12T05:00:47.570Z,3.85
2019-05-12T05:03:27.995Z,4.10
2019-05-12T05:06:08.647Z,4.33
2019-05-12T05:08:49.511Z,3.95
2019-05-12T05:11:30.320Z,4.45
2019-05-12T05:14:10.953Z,4.28
2019-05-12T05:16:54.258Z,4.17
2019-05-12T05:19:33.993Z,4.33
2019-05-12T05:22:14.951Z,4.70
2019-05-12T05:24:55.255Z,4.60
2019-05-12T05:27:35.539Z,4.17
2019-05-12T05:30:16.148Z,4.03
2019-05-12T05:32:56.940Z,3.98
2019-05-12T05:35:39.792Z,3.72
2019-05-12T05:38:20.958Z,4.20
2019-05-12T05:41:05.916Z,3.90
2019-05-12T05:43:48.595Z,3.55
2019-05-12T05:46:27.643Z,3.62
2019-05-12T05:49:08.015Z,3.77
2019-05-12T05:51:54.523Z,4.00
2019-05-12T05:54:35.723Z,3.45
2019-05-12T05:57:14.412Z,3.22
2019-05-12T05:59:54.987Z,3.83
2019-05-12T06:05:26.357Z,3.45
2019-05-12T06:25:26.837Z,3.22
2019-05-12T06:28:09.463Z,3.35
2019-05-12T06:30:50.369Z,3.60
2019-05-12T06:33:35.513Z,3.80
2019-05-12T06:36:21.912Z,2.80
2019-05-12T06:38:56.501Z,3.22
2019-05-12T06:41:37.107Z,3.70
2019-05-12T06:44:19.623Z,3.00
2019-05-12T06:47:03.411Z,2.67
2019-05-12T06:49:43.988Z,3.12
2019-05-12T06:52:24.619Z,3.25
2019-05-12T06:55:08.272Z,2.90
2019-05-12T06:57:50.281Z,2.77
2019-05-12T07:00:32.654Z,2.52
2019-05-12T07:03:14.376Z,3.08
2019-05-12T07:05:55.351Z,3.75
2019-05-12T07:08:38.229Z,3.20
2019-05-12T07:11:18.285Z,3.42
2019-05-12T07:14:04.491Z,2.30
2019-05-12T07:16:30.553Z,2.90
2019-05-12T07:18:59.241Z,3.30
2019-05-12T07:21:27.780Z,2.60
2019-05-12T07:24:00.582Z,3.25
2019-05-12T07:26:26.927Z,3.27
2019-05-12T07:28:55.459Z,3.33
2019-05-12T07:31:24.052Z,2.67
2019-05-12T07:33:54.215Z,2.55
2019-05-12T07:36:24.308Z,3.17
2019-05-12T07:38:55.802Z,2.55
2019-05-12T07:41:24.275Z,2.60
2019-05-12T07:43:56.758Z,3.27
2019-05-12T07:46:27.532Z,2.37
2019-05-12T07:48:54.638Z,2.60
2019-05-12T07:51:24.204Z,2.83
2019-05-12T07:53:57.199Z,2.10
2019-05-12T07:56:25.977Z,2.60
2019-05-12T07:58:57.079Z,2.75
2019-05-12T08:01:25.350Z,2.60
2019-05-12T08:03:57.326Z,2.65
2019-05-12T08:06:25.019Z,2.30
2019-05-12T08:08:58.708Z,2.30
2019-05-12T08:11:28.892Z,2.65
2019-05-12T08:13:54.811Z,2.33
2019-05-12T08:16:25.622Z,2.20
2019-05-12T08:18:54.346Z,2.58
2019-05-12T08:21:24.260Z,2.58
2019-05-12T08:23:53.552Z,2.22
2019-05-12T08:26:23.933Z,2.02
2019-05-12T08:28:53.536Z,2.45
2019-05-12T08:31:25.852Z,2.17
2019-05-12T08:33:53.864Z,2.37
2019-05-12T08:36:23.591Z,2.20
2019-05-12T08:38:53.644Z,2.27
2019-05-12T08:41:23.503Z,2.30
2019-05-12T08:43:57.998Z,2.92
2019-05-12T08:46:24.375Z,2.70
2019-05-12T08:49:00.055Z,2.75
2019-05-12T08:51:24.998Z,2.42
2019-05-12T08:54:02.650Z,2.70
2019-05-12T08:56:26.202Z,1.85
2019-05-12T08:58:55.081Z,2.52
2019-05-12T09:01:28.595Z,2.58
2019-05-12T09:03:53.978Z,2.30
2019-05-12T09:06:23.763Z,2.22
2019-05-12T09:08:54.217Z,2.17
2019-05-12T09:11:24.265Z,2.27
2019-05-12T09:14:00.475Z,2.10
2019-05-12T09:16:24.456Z,1.98
2019-05-12T09:18:55.362Z,2.33
2019-05-12T09:21:31.307Z,2.20
2019-05-12T09:23:55.998Z,2.58
2019-05-12T09:26:28.265Z,1.98
2019-05-12T09:28:54.666Z,1.98
2019-05-12T09:31:25.456Z,1.55
2019-05-12T09:33:54.698Z,1.80
2019-05-12T09:36:24.339Z,1.55
2019-05-12T09:39:01.309Z,1.37
2019-05-12T09:41:24.093Z,1.42
2019-05-12T09:43:53.423Z,1.50
2019-05-12T09:46:23.303Z,1.60
2019-05-12T09:48:55.044Z,1.50
2019-05-12T09:51:23.862Z,1.22
2019-05-12T09:53:55.320Z,1.25
2019-05-12T09:56:23.967Z,1.55
2019-05-12T09:59:01.458Z,1.60
2019-05-12T10:01:24.207Z,1.82
2019-05-12T10:03:54.415Z,2.02
2019-05-12T10:06:24.554Z,2.90
2019-05-12T10:08:54.830Z,2.90
2019-05-12T10:11:23.807Z,2.72
2019-05-12T10:13:54.263Z,2.47
2019-05-12T10:16:24.112Z,2.02
2019-05-12T10:18:52.860Z,1.57
2019-05-12T10:21:23.813Z,2.62
2019-05-12T10:24:00.250Z,1.90
2019-05-12T10:26:23.546Z,1.60
2019-05-12T10:28:58.116Z,2.17
2019-05-12T10:31:24.247Z,2.55
2019-05-12T10:33:58.195Z,1.62
2019-05-12T10:36:25.567Z,1.45
2019-05-12T10:38:54.348Z,1.45
2019-05-12T10:41:23.656Z,1.57
2019-05-12T10:43:55.286Z,2.15
2019-05-12T10:46:26.827Z,1.62
2019-05-12T10:48:54.065Z,1.55
2019-05-12T10:51:23.872Z,1.90
2019-05-12T10:53:58.282Z,2.10
2019-05-12T10:56:24.321Z,1.35
2019-05-12T10:58:53.527Z,1.70
2019-05-12T11:01:24.227Z,1.90
2019-05-12T11:03:52.782Z,1.40
2019-05-12T11:06:23.873Z,1.42
2019-05-12T11:08:54.132Z,1.10
2019-05-12T11:11:24.050Z,1.75
2019-05-12T11:13:53.744Z,1.77
2019-05-12T11:16:30.720Z,1.50
2019-05-12T11:18:54.195Z,1.35
2019-05-12T11:21:22.907Z,1.57
2019-05-12T11:23:51.484Z,1.42
2019-05-12T11:26:20.062Z,1.35
2019-05-12T11:28:49.119Z,1.20
2019-05-12T11:31:18.211Z,1.30
2019-05-12T11:33:48.655Z,1.25
2019-05-12T11:36:17.279Z,1.50
2019-05-12T11:38:46.092Z,1.67
2019-05-12T11:41:16.215Z,1.60
2019-05-12T11:43:45.346Z,1.30
2019-05-12T11:46:14.347Z,1.30
2019-05-12T11:48:46.307Z,1.12
2019-05-12T11:51:14.450Z,0.75
2019-05-12T11:53:44.506Z,1.22
2019-05-12T11:56:13.922Z,1.15
2019-05-12T11:58:47.391Z,1.00
2019-05-12T12:01:15.243Z,1.17
2019-05-12T12:03:44.331Z,0.80
2019-05-12T12:06:13.464Z,1.25
2019-05-12T12:08:44.162Z,0.88
2019-05-12T12:11:18.865Z,0.70
2019-05-12T12:13:43.591Z,1.10
2019-05-12T12:16:14.001Z,0.95
2019-05-12T12:18:46.647Z,1.27
2019-05-12T12:21:14.314Z,1.20
2019-05-12T12:23:48.741Z,1.00
2019-05-12T12:26:26.144Z,1.17
2019-05-12T12:28:54.272Z,0.90
2019-05-12T12:31:23.828Z,0.80
2019-05-12T12:33:53.587Z,0.78
2019-05-12T12:36:23.654Z,0.75
2019-05-12T12:38:53.582Z,1.00
2019-05-12T12:41:23.702Z,0.80
2019-05-12T12:43:54.092Z,0.55
2019-05-12T12:46:26.714Z,0.65
2019-05-12T12:49:00.318Z,0.80
2019-05-12T12:51:26.199Z,1.07
2019-05-12T12:53:55.164Z,0.90
2019-05-12T12:56:30.041Z,0.80
2019-05-12T12:59:01.894Z,0.85
2019-05-12T13:01:28.825Z,0.90
2019-05-12T13:03:59.424Z,0.72
2019-05-12T13:06:27.939Z,1.17
2019-05-12T13:08:56.583Z,0.90
2019-05-12T13:11:33.091Z,0.70
2019-05-12T13:13:55.945Z,1.00
2019-05-12T13:16:24.527Z,1.07
2019-05-12T13:18:53.863Z,0.82
2019-05-12T13:21:22.843Z,0.85
2019-05-12T13:23:53.822Z,0.88
2019-05-12T13:26:23.896Z,0.70
2019-05-12T13:28:54.869Z,0.70
2019-05-12T13:31:24.340Z,0.68
2019-05-12T13:33:54.743Z,0.70
2019-05-12T13:36:24.216Z,0.88
2019-05-12T13:38:53.156Z,0.90
2019-05-12T13:41:22.370Z,0.60
2019-05-12T13:43:56.129Z,0.80
2019-05-12T13:46:23.885Z,0.60
2019-05-12T13:48:57.604Z,0.80
2019-05-12T13:51:24.147Z,0.72
2019-05-12T13:53:53.571Z,0.78
2019-05-12T13:56:27.348Z,0.60
2019-05-12T13:58:54.079Z,0.60
2019-05-12T14:01:24.852Z,0.78
2019-05-12T14:03:53.752Z,0.72
2019-05-12T14:06:31.522Z,0.70
2019-05-12T14:08:53.760Z,0.40
2019-05-12T14:11:23.915Z,0.42
2019-05-12T14:13:52.762Z,0.60
2019-05-12T14:16:23.690Z,0.65
2019-05-12T14:18:57.219Z,0.60
2019-05-12T14:21:24.454Z,0.80
2019-05-12T14:23:53.439Z,0.70
2019-05-12T14:26:24.123Z,0.65
2019-05-12T14:28:53.328Z,0.42
2019-05-12T14:31:29.370Z,0.68
2019-05-12T14:33:53.881Z,0.50
2019-05-12T14:36:26.468Z,0.70
2019-05-12T14:38:53.524Z,0.50
2019-05-12T14:41:26.330Z,0.40
2019-05-12T14:44:01.418Z,0.60
2019-05-12T14:46:24.191Z,0.62
2019-05-12T14:48:54.246Z,0.60
2019-05-12T14:51:24.530Z,0.60
2019-05-12T14:53:53.643Z,0.82
2019-05-12T14:56:23.343Z,0.50
2019-05-12T14:58:56.422Z,0.60
2019-05-12T15:01:23.864Z,0.50
2019-05-12T15:03:53.575Z,1.62
2019-05-12T15:06:25.658Z,2.10
2019-05-12T15:08:54.140Z,1.30
2019-05-12T15:11:23.729Z,1.57
2019-05-12T15:13:54.147Z,2.70
2019-05-12T15:16:23.801Z,1.10
2019-05-12T15:18:54.166Z,0.57
2019-05-12T15:21:27.345Z,0.50
2019-05-12T15:23:53.791Z,0.57
2019-05-12T15:26:24.265Z,0.55
2019-05-12T15:28:54.306Z,0.40
2019-05-12T15:31:23.607Z,0.65
2019-05-12T15:33:52.622Z,0.70
2019-05-12T15:36:21.186Z,0.80
2019-05-12T15:38:55.849Z,0.75
2019-05-12T15:41:20.393Z,1.35
2019-05-12T15:43:49.336Z,0.70
2019-05-12T15:46:19.102Z,0.60
2019-05-12T15:48:47.672Z,1.30
2019-05-12T15:51:16.267Z,0.40
2019-05-12T15:53:45.228Z,0.80
2019-05-12T15:56:21.149Z,0.98
2019-05-12T15:58:44.466Z,0.93
2019-05-12T16:01:13.882Z,0.50
2019-05-12T16:03:43.942Z,0.70
2019-05-12T16:06:14.893Z,0.75
2019-05-12T16:08:43.478Z,0.60
2019-05-12T16:11:13.992Z,0.60
2019-05-12T16:13:44.925Z,0.72
2019-05-12T16:16:14.179Z,0.70
2019-05-12T16:18:48.806Z,0.60
2019-05-12T16:21:14.486Z,1.37
2019-05-12T16:23:44.653Z,0.90
2019-05-12T16:26:15.325Z,0.65
2019-05-12T16:28:44.313Z,0.78
2019-05-12T16:31:14.474Z,0.50
2019-05-12T16:33:43.702Z,0.55
2019-05-12T16:36:14.534Z,0.65
2019-05-12T16:38:44.523Z,0.60
2019-05-12T16:41:14.381Z,0.70
2019-05-12T16:43:44.116Z,0.50
2019-05-12T16:46:14.267Z,0.50
2019-05-12T16:48:48.262Z,0.50
2019-05-12T16:51:13.944Z,0.50
2019-05-12T16:53:43.577Z,0.60
2019-05-12T16:56:14.763Z,0.70
2019-05-12T16:58:43.534Z,0.30
2019-05-12T17:01:14.190Z,0.50
2019-05-12T17:03:44.466Z,0.68
2019-05-12T17:06:14.261Z,0.37
2019-05-12T17:08:43.877Z,0.30
2019-05-12T17:11:26.154Z,0.50
2019-05-12T17:13:49.271Z,0.50
2019-05-12T17:16:13.794Z,0.57
2019-05-12T17:18:44.348Z,0.50
2019-05-12T17:21:14.270Z,0.42
2019-05-12T17:23:43.118Z,0.60
2019-05-12T17:26:13.948Z,0.50
2019-05-12T17:28:43.599Z,0.45
2019-05-12T17:31:12.867Z,0.50
2019-05-12T17:33:41.787Z,0.50
2019-05-12T17:36:12.487Z,0.40
2019-05-12T17:38:44.107Z,0.45
2019-05-12T17:41:15.419Z,0.55
2019-05-12T17:43:52.074Z,0.40
2019-05-12T17:46:17.957Z,0.40
2019-05-12T17:48:44.900Z,0.47
2019-05-12T17:51:13.992Z,0.70
2019-05-12T17:53:43.465Z,0.40
2019-05-12T17:56:13.951Z,0.40
2019-05-12T17:58:47.018Z,0.40
2019-05-12T18:01:14.358Z,0.30
2019-05-12T18:03:48.774Z,0.42
2019-05-12T18:06:14.280Z,0.35
2019-05-12T18:08:44.342Z,0.82
2019-05-12T18:11:15.970Z,0.50
2019-05-12T18:13:43.967Z,0.40
2019-05-12T18:16:20.380Z,0.53
2019-05-12T18:18:43.596Z,0.50
2019-05-12T18:21:21.210Z,0.47
2019-05-12T18:23:43.625Z,0.40
2019-05-12T18:26:16.124Z,0.60
2019-05-12T18:28:44.260Z,0.40
2019-05-12T18:31:13.883Z,0.40
2019-05-12T18:33:51.640Z,0.42
2019-05-12T18:36:14.315Z,0.50
2019-05-12T18:38:44.638Z,0.57
2019-05-12T18:41:14.592Z,0.80
2019-05-12T18:43:43.623Z,1.00
2019-05-12T18:46:14.005Z,0.78
2019-05-12T18:48:43.222Z,0.93
2019-05-12T18:51:17.020Z,1.17
2019-05-12T18:53:43.855Z,0.90
2019-05-12T18:56:17.173Z,0.72
2019-05-12T18:58:44.461Z,0.70
2019-05-12T19:01:14.202Z,0.70
2019-05-12T19:03:47.873Z,0.65
2019-05-12T19:06:14.113Z,0.40
2019-05-12T19:08:43.339Z,0.60
2019-05-12T19:11:19.970Z,0.62
2019-05-12T19:13:51.392Z,0.50
2019-05-12T19:16:14.421Z,0.70
2019-05-12T19:18:43.434Z,0.40
2019-05-12T19:21:16.612Z,0.50
2019-05-12T19:23:43.540Z,0.60
2019-05-12T19:26:13.585Z,1.27
2019-05-12T19:28:52.556Z,5.47
2019-05-12T19:31:14.153Z,4.78
2019-05-12T19:33:53.010Z,5.80
2019-05-12T19:36:13.673Z,4.05
2019-05-12T19:38:43.903Z,3.00
2019-05-12T19:41:13.996Z,5.97
2019-05-12T19:43:45.391Z,5.78
2019-05-12T19:46:13.746Z,4.35
2019-05-12T19:48:49.296Z,2.25
2019-05-12T19:51:23.665Z,2.05
2019-05-12T19:53:43.843Z,1.07
2019-05-12T19:56:14.213Z,1.27
2019-05-12T19:58:45.767Z,1.10
2019-05-12T20:01:14.121Z,1.27
2019-05-12T20:03:43.965Z,1.10
2019-05-12T20:06:13.564Z,0.98
2019-05-12T20:08:43.708Z,1.00
2019-05-12T20:11:14.269Z,1.15
2019-05-12T20:13:44.504Z,0.82
2019-05-12T20:16:21.352Z,0.98
2019-05-12T20:18:49.076Z,0.80
2019-05-12T20:21:14.302Z,0.70
2019-05-12T20:23:43.928Z,0.70
2019-05-12T20:26:14.546Z,0.82
2019-05-12T20:28:50.129Z,0.75
2019-05-12T20:31:14.117Z,0.88
2019-05-12T20:33:43.545Z,0.53
2019-05-12T20:36:14.232Z,0.70
2019-05-12T20:38:44.415Z,0.78
2019-05-12T20:41:20.174Z,0.60
2019-05-12T20:43:44.323Z,0.70
2019-05-12T20:46:21.673Z,0.75
2019-05-12T20:48:44.629Z,0.57
2019-05-12T20:51:18.637Z,0.62
2019-05-12T20:53:44.630Z,0.60
2019-05-12T20:56:20.109Z,0.62
2019-05-12T20:58:46.505Z,0.60
2019-05-12T21:01:14.376Z,0.60
2019-05-12T21:03:49.026Z,0.53
2019-05-12T21:06:14.538Z,0.82
2019-05-12T21:08:53.298Z,0.70
2019-05-12T21:11:14.501Z,0.50
2019-05-12T21:13:44.019Z,0.82
2019-05-12T21:16:17.633Z,0.70
2019-05-12T21:18:47.841Z,1.10
2019-05-12T21:21:14.357Z,0.90
2019-05-12T21:23:45.683Z,0.60
2019-05-12T21:26:14.550Z,0.80
2019-05-12T21:28:48.055Z,0.60
2019-05-12T21:31:14.138Z,0.60
2019-05-12T21:33:43.787Z,0.65
2019-05-12T21:36:17.382Z,0.70
2019-05-12T21:38:42.924Z,0.80
2019-05-12T21:41:13.362Z,0.55
2019-05-12T21:43:43.777Z,0.75
2019-05-12T21:46:15.437Z,0.80
2019-05-12T21:48:43.356Z,0.62
2019-05-12T21:51:18.399Z,0.80
2019-05-12T21:53:43.728Z,0.60
2019-05-12T21:56:13.933Z,0.90
2019-05-12T21:58:53.373Z,0.80
2019-05-12T22:01:13.698Z,0.70
2019-05-12T22:03:45.933Z,0.82
2019-05-12T22:06:20.743Z,0.90
2019-05-12T22:08:44.206Z,0.65
2019-05-12T22:11:12.991Z,0.70
2019-05-12T22:13:46.794Z,0.80
2019-05-12T22:16:14.159Z,1.10
2019-05-12T22:18:43.738Z,0.78
2019-05-12T22:21:13.652Z,0.80
2019-05-12T22:23:50.953Z,1.30
2019-05-12T22:26:13.231Z,0.80
2019-05-12T22:28:46.640Z,1.10
2019-05-12T22:31:13.710Z,0.93
2019-05-12T22:33:51.517Z,0.95
2019-05-12T22:36:20.708Z,1.00
2019-05-12T22:38:44.402Z,0.85
2019-05-12T22:41:13.627Z,1.60
2019-05-12T22:43:45.679Z,1.90
2019-05-12T22:46:16.452Z,1.95
2019-05-12T22:48:45.272Z,2.00
2019-05-12T22:51:21.131Z,2.05
2019-05-12T22:53:44.603Z,1.80
2019-05-12T22:56:17.828Z,1.42
2019-05-12T22:58:44.491Z,0.82
2019-05-12T23:01:14.392Z,0.80
2019-05-12T23:03:51.318Z,0.80
2019-05-12T23:06:23.711Z,0.90
2019-05-12T23:08:49.107Z,1.00
2019-05-12T23:11:14.859Z,0.90
2019-05-12T23:13:43.406Z,0.90
2019-05-12T23:16:14.163Z,0.78
2019-05-12T23:18:44.407Z,0.70
2019-05-12T23:21:17.546Z,0.93
2019-05-12T23:23:43.495Z,1.20
2019-05-12T23:26:13.845Z,1.15
2019-05-12T23:28:46.863Z,1.45
2019-05-12T23:31:13.865Z,1.25
2019-05-12T23:33:44.136Z,0.90
2019-05-12T23:36:15.720Z,0.90
2019-05-12T23:38:44.026Z,0.98
2019-05-12T23:41:13.578Z,1.00
2019-05-12T23:43:42.666Z,0.70
2019-05-12T23:46:11.467Z,0.70
2019-05-12T23:48:40.070Z,0.93
2019-05-12T23:51:09.221Z,1.05
2019-05-12T23:53:38.083Z,1.00
2019-05-12T23:56:07.037Z,0.90
2019-05-12T23:58:35.643Z,1.15
